TimePDT,TemperatureF,Dew PointF,Humidity,Sea Level PressureIn,VisibilityMPH,Wind Direction,Wind SpeedMPH,Gust SpeedMPH,PrecipitationIn,Events,Conditions,WindDirDegrees,DateUTC
12:53 AM,64.0,48.9,58,29.96,7.0,Calm,Calm,-,N/A,,Clear,0,2013-10-25 07:53:00
1:53 AM,64.9,48.9,56,29.96,7.0,Calm,Calm,-,N/A,,Clear,0,2013-10-25 08:53:00
2:53 AM,60.1,50.0,69,29.97,8.0,Calm,Calm,-,N/A,,Clear,0,2013-10-25 09:53:00
3:53 AM,64.0,46.0,52,29.96,7.0,NW,3.5,-,N/A,,Clear,310,2013-10-25 10:53:00
4:53 AM,60.1,46.9,62,29.97,8.0,Calm,Calm,-,N/A,,Clear,0,2013-10-25 11:53:00
5:53 AM,59.0,46.9,64,29.98,8.0,Calm,Calm,-,N/A,,Clear,0,2013-10-25 12:53:00
6:53 AM,57.0,46.9,69,29.99,9.0,Calm,Calm,-,N/A,,Clear,0,2013-10-25 13:53:00
7:53 AM,68.0,44.1,42,30.01,7.0,NNW,8.1,-,N/A,,Clear,330,2013-10-25 14:53:00
8:53 AM,69.1,46.0,44,30.03,9.0,Calm,Calm,-,N/A,,Clear,0,2013-10-25 15:53:00
9:53 AM,77.0,46.0,33,30.03,10.0,Calm,Calm,-,N/A,,Clear,0,2013-10-25 16:53:00
10:53 AM,82.9,28.0,14,30.02,10.0,Variable,3.5,-,N/A,,Clear,0,2013-10-25 17:53:00
11:53 AM,87.1,35.1,16,30.01,10.0,East,6.9,-,N/A,,Clear,100,2013-10-25 18:53:00
12:53 PM,88.0,37.0,16,29.99,10.0,ESE,8.1,-,N/A,,Clear,120,2013-10-25 19:53:00
1:53 PM,88.0,33.1,14,29.97,10.0,ESE,9.2,-,N/A,,Clear,120,2013-10-25 20:53:00
2:53 PM,89.1,26.1,10,29.96,10.0,ESE,10.4,-,N/A,,Clear,120,2013-10-25 21:53:00
3:53 PM,89.1,33.1,14,29.96,10.0,ESE,10.4,-,N/A,,Clear,120,2013-10-25 22:53:00
4:53 PM,87.1,32.0,14,29.96,10.0,ESE,8.1,-,N/A,,Clear,120,2013-10-25 23:53:00
5:53 PM,84.0,35.1,17,29.97,10.0,East,3.5,-,N/A,,Clear,100,2013-10-26 00:53:00
6:53 PM,81.0,37.9,21,30.00,10.0,Calm,Calm,-,N/A,,Clear,0,2013-10-26 01:53:00
7:53 PM,75.9,39.9,27,30.01,10.0,NW,3.5,-,N/A,,Clear,310,2013-10-26 02:53:00
8:53 PM,73.0,28.9,20,30.02,10.0,NNW,6.9,-,N/A,,Clear,330,2013-10-26 03:53:00
9:53 PM,73.0,35.1,25,30.03,10.0,NNW,5.8,-,N/A,,Clear,330,2013-10-26 04:53:00
10:53 PM,73.9,34.0,23,30.03,10.0,NNW,5.8,-,N/A,,Clear,330,2013-10-26 05:53:00
11:53 PM,70.0,28.9,22,30.03,10.0,NNW,8.1,-,N/A,,Clear,340,2013-10-26 06:53:00